Time;durP1;ratioP1;P1;durP2;ratioP2;P2;SDS_P1;SDS_P2;PMS_P1;PMS_P2;Temp;Humidity;BMP_temperature;BMP_pressure;BME280_temperature;BME280_humidity;BME280_pressure;Samples;Min_cycle;Max_cycle;Signal;HPM_P1;HPM_P2
2022/01/07 00:00:34;;;;;;;17.13;9.48;;;;;;;7.36;67.55;99585.19;5090694;28;20093;-38
2022/01/07 00:03:00;;;;;;;16.95;9.25;;;;;;;7.56;67.45;99590.72;5090616;28;20024;-38
2022/01/07 00:05:26;;;;;;;15.38;9.30;;;;;;;8.01;65.66;99589.53;5090660;28;20028;-38
2022/01/07 00:07:51;;;;;;;17.25;8.60;;;;;;;7.94;65.15;99599.22;5090295;28;20028;-38
2022/01/07 00:10:18;;;;;;;13.60;8.60;;;;;;;7.75;66.72;99603.34;5090507;28;20039;-38
2022/01/07 00:12:43;;;;;;;17.20;9.60;;;;;;;7.60;66.38;99595.44;5090433;28;20028;-38
2022/01/07 00:15:09;;;;;;;16.75;8.98;;;;;;;7.51;67.27;99604.50;5090519;28;20038;-38
2022/01/07 00:17:35;;;;;;;15.27;9.13;;;;;;;7.15;67.78;99612.41;5092241;28;20048;-38
2022/01/07 00:20:00;;;;;;;15.65;9.02;;;;;;;7.71;66.24;99602.06;5094464;28;20799;-38
2022/01/07 00:22:26;;;;;;;17.63;8.82;;;;;;;7.74;66.03;99619.41;5093109;28;20043;-38
2022/01/07 00:24:51;;;;;;;15.45;7.93;;;;;;;7.59;65.93;99617.59;5094474;28;20385;-38
2022/01/07 00:27:17;;;;;;;14.25;8.07;;;;;;;7.47;66.87;99618.31;5094388;28;20029;-38
2022/01/07 00:29:42;;;;;;;14.30;8.65;;;;;;;7.34;66.33;99621.59;5094331;28;20028;-38
2022/01/07 00:32:08;;;;;;;12.90;8.07;;;;;;;7.11;66.74;99634.97;5094340;28;20028;-37
2022/01/07 00:34:33;;;;;;;13.18;7.82;;;;;;;7.23;66.75;99636.97;5094272;28;20036;-38
2022/01/07 00:36:59;;;;;;;13.75;8.02;;;;;;;7.19;66.42;99632.22;5094376;28;20012;-37
2022/01/07 00:39:24;;;;;;;15.48;8.50;;;;;;;6.88;67.51;99641.16;5094214;28;20081;-38
2022/01/07 00:41:49;;;;;;;12.38;7.43;;;;;;;6.69;68.55;99647.00;5094243;28;20031;-37
2022/01/07 00:44:15;;;;;;;17.08;8.07;;;;;;;6.94;67.76;99651.00;5094034;28;20362;-38
2022/01/07 00:46:40;;;;;;;13.85;7.80;;;;;;;6.93;68.41;99648.53;5094116;28;20021;-37
2022/01/07 00:49:06;;;;;;;13.52;8.25;;;;;;;7.00;67.61;99654.75;5093926;28;20069;-38
2022/01/07 00:51:31;;;;;;;16.88;8.90;;;;;;;6.75;68.41;99652.38;5092744;28;20028;-38
2022/01/07 00:53:57;;;;;;;15.93;8.50;;;;;;;6.70;68.13;99664.47;5093908;28;20016;-38
2022/01/07 00:56:22;;;;;;;12.77;7.70;;;;;;;6.48;68.59;99663.53;5093539;28;20020;-37
2022/01/07 00:58:48;;;;;;;15.73;8.30;;;;;;;6.61;68.25;99669.84;5094023;28;20020;-38
2022/01/07 01:01:13;;;;;;;14.32;8.02;;;;;;;6.47;69.17;99670.63;5093636;28;20471;-38
2022/01/07 01:03:39;;;;;;;15.77;8.13;;;;;;;6.39;69.05;99676.00;5093513;28;20055;-37
2022/01/07 01:06:04;;;;;;;13.38;7.47;;;;;;;6.66;68.19;99669.31;5093593;28;20035;-38
2022/01/07 01:08:30;;;;;;;14.15;8.18;;;;;;;6.58;68.71;99672.84;5093674;28;20044;-37
2022/01/07 01:10:55;;;;;;;13.18;7.60;;;;;;;6.74;68.52;99681.63;5093423;28;20399;-38
2022/01/07 01:13:21;;;;;;;12.40;7.30;;;;;;;6.71;67.53;99687.31;5093506;28;20047;-37
2022/01/07 01:15:46;;;;;;;14.95;7.82;;;;;;;6.62;68.35;99665.38;5093532;28;20043;-37
2022/01/07 01:18:12;;;;;;;14.15;7.40;;;;;;;6.45;68.10;99670.84;5092163;28;20116;-37
2022/01/07 01:20:37;;;;;;;15.70;8.07;;;;;;;6.46;69.20;99684.88;5093384;28;20443;-38
2022/01/07 01:23:03;;;;;;;12.32;7.55;;;;;;;6.56;68.93;99689.91;5093682;28;20015;-38
2022/01/07 01:25:28;;;;;;;13.55;8.07;;;;;;;6.40;68.81;99677.66;5093122;28;20391;-37
2022/01/07 01:27:54;;;;;;;19.67;7.45;;;;;;;6.51;68.92;99692.25;5092621;28;20118;-37
2022/01/07 01:30:19;;;;;;;12.48;6.88;;;;;;;6.61;68.29;99688.38;5093229;28;20020;-37
2022/01/07 01:32:48;;;;;;;13.48;7.35;;;;;;;6.61;68.77;99680.44;5092705;28;20023;-37
2022/01/07 01:35:14;;;;;;;13.68;7.75;;;;;;;6.49;68.72;99681.84;5093525;28;20456;-38
2022/01/07 01:37:40;;;;;;;15.57;7.20;;;;;;;6.44;68.53;99679.75;5093570;28;20028;-37
2022/01/07 01:40:07;;;;;;;14.10;7.03;;;;;;;6.37;68.82;99684.09;5094009;28;20454;-37
2022/01/07 01:42:32;;;;;;;12.30;7.38;;;;;;;6.48;68.50;99689.97;5093851;28;20537;-37
2022/01/07 01:44:58;;;;;;;13.07;7.07;;;;;;;6.37;68.77;99692.03;5093959;28;20024;-37
2022/01/07 01:47:23;;;;;;;13.75;7.03;;;;;;;6.43;69.12;99682.56;5093621;28;20103;-37
2022/01/07 01:49:49;;;;;;;12.68;7.05;;;;;;;6.47;68.27;99683.84;5093383;28;20024;-38
2022/01/07 01:52:14;;;;;;;11.88;6.53;;;;;;;6.57;67.77;99683.63;5093512;28;20131;-38
2022/01/07 01:54:43;;;;;;;12.07;7.00;;;;;;;6.65;67.84;99694.94;5093474;28;20107;-37
2022/01/07 01:57:08;;;;;;;15.32;7.30;;;;;;;6.80;67.41;99686.22;5093422;28;20103;-38
2022/01/07 01:59:34;;;;;;;11.50;7.50;;;;;;;6.59;67.17;99677.16;5093080;28;20119;-37
2022/01/07 02:01:59;;;;;;;12.68;7.10;;;;;;;6.83;66.64;99689.34;5093225;28;20043;-38
2022/01/07 02:04:24;;;;;;;13.13;7.13;;;;;;;6.73;67.38;99680.81;5093372;28;20187;-38
2022/01/07 02:06:50;;;;;;;13.73;7.03;;;;;;;6.65;67.77;99687.00;5091791;28;20093;-37
2022/01/07 02:09:16;;;;;;;11.73;7.10;;;;;;;6.74;67.10;99692.22;5091475;28;20050;-38
2022/01/07 02:11:42;;;;;;;10.57;6.40;;;;;;;6.88;66.89;99698.53;5092964;28;20024;-37
2022/01/07 02:14:07;;;;;;;12.18;7.10;;;;;;;6.92;66.48;99702.47;5093117;28;20043;-37
2022/01/07 02:16:32;;;;;;;13.20;7.28;;;;;;;6.77;66.87;99707.72;5092753;28;20028;-38
2022/01/07 02:18:58;;;;;;;12.60;7.55;;;;;;;6.65;67.08;99694.94;5092724;28;20039;-38
2022/01/07 02:21:25;;;;;;;14.35;7.53;;;;;;;6.77;67.45;99702.44;5092915;28;20028;-37
2022/01/07 02:23:50;;;;;;;13.35;7.10;;;;;;;6.52;68.17;99699.19;5092757;28;20109;-38
2022/01/07 02:26:17;;;;;;;12.48;7.47;;;;;;;6.65;67.09;99678.25;5091426;28;20036;-37
2022/01/07 02:28:43;;;;;;;11.63;7.15;;;;;;;6.58;67.80;99712.50;5091699;28;20640;-38
2022/01/07 02:31:08;;;;;;;11.95;7.55;;;;;;;6.59;68.06;99718.66;5091240;28;20024;-37
2022/01/07 02:33:34;;;;;;;12.02;7.38;;;;;;;6.63;67.93;99723.38;5092377;28;20106;-38
2022/01/07 02:36:08;;;;;;;13.55;7.93;;;;;;;6.76;67.41;99730.72;5092646;28;20141;-38
2022/01/07 02:38:34;;;;;;;13.82;7.93;;;;;;;6.61;67.71;99733.31;5092507;28;20383;-37
2022/01/07 02:41:00;;;;;;;11.98;7.22;;;;;;;6.48;68.49;99730.44;5091829;28;20024;-37
2022/01/07 02:43:25;;;;;;;12.07;6.68;;;;;;;6.61;68.50;99730.69;5092463;28;20024;-37
2022/01/07 02:45:50;;;;;;;16.02;7.30;;;;;;;6.48;68.71;99737.56;5092652;28;20031;-37
2022/01/07 02:48:16;;;;;;;13.75;7.53;;;;;;;6.54;68.11;99740.31;5092439;28;20452;-38
2022/01/07 02:50:41;;;;;;;13.85;7.80;;;;;;;6.53;68.92;99737.84;5092266;28;20411;-38
2022/01/07 02:53:08;;;;;;;14.00;7.28;;;;;;;6.46;68.69;99738.56;5092070;28;20032;-37
2022/01/07 02:55:34;;;;;;;10.63;7.00;;;;;;;6.22;69.04;99734.25;5092124;28;20027;-37
2022/01/07 02:57:59;;;;;;;9.95;6.50;;;;;;;6.13;69.62;99742.41;5091758;28;20024;-37
2022/01/07 03:00:25;;;;;;;12.80;7.10;;;;;;;6.21;69.81;99740.56;5091817;28;20107;-37
2022/01/07 03:02:51;;;;;;;11.77;7.03;;;;;;;6.24;69.25;99742.84;5092204;28;20023;-37
2022/01/07 03:05:17;;;;;;;12.93;7.63;;;;;;;6.50;69.17;99746.97;5092254;28;20144;-37
2022/01/07 03:07:42;;;;;;;13.20;6.80;;;;;;;6.48;68.37;99741.03;5091827;28;20487;-37
2022/01/07 03:10:08;;;;;;;11.88;6.95;;;;;;;6.32;69.14;99749.06;5092002;28;20445;-37
2022/01/07 03:12:36;;;;;;;12.15;7.07;;;;;;;6.53;68.75;99757.19;5092231;28;20111;-37
2022/01/07 03:15:05;;;;;;;12.80;6.97;;;;;;;6.42;68.41;99760.25;5091800;28;20024;-37
2022/01/07 03:17:30;;;;;;;12.25;6.68;;;;;;;6.38;68.72;99758.97;5092135;28;20057;-37
2022/01/07 03:19:56;;;;;;;12.40;6.70;;;;;;;6.29;69.06;99758.19;5092161;28;20059;-37
2022/01/07 03:22:21;;;;;;;13.23;7.40;;;;;;;6.47;68.28;99763.16;5091705;28;20020;-37
2022/01/07 03:24:46;;;;;;;13.23;7.38;;;;;;;6.67;67.66;99763.53;5091947;28;20024;-37
2022/01/07 03:27:12;;;;;;;12.52;6.47;;;;;;;6.54;68.04;99769.41;5091668;28;20769;-38
2022/01/07 03:29:37;;;;;;;11.05;6.68;;;;;;;6.78;67.21;99775.50;5091879;28;20579;-37
2022/01/07 03:32:03;;;;;;;11.90;6.95;;;;;;;6.68;67.59;99780.22;5091722;28;20024;-37
2022/01/07 03:34:28;;;;;;;13.13;7.00;;;;;;;6.71;67.29;99777.22;5091201;28;20024;-37
2022/01/07 03:36:54;;;;;;;15.05;7.47;;;;;;;6.48;68.06;99778.03;5091514;28;20027;-37
2022/01/07 03:39:19;;;;;;;12.82;6.82;;;;;;;6.54;67.90;99792.38;5091748;28;20027;-37
2022/01/07 03:41:45;;;;;;;12.23;6.88;;;;;;;6.52;68.27;99792.53;5091475;28;20032;-37
2022/01/07 03:44:10;;;;;;;12.07;7.07;;;;;;;6.63;68.11;99778.09;5091249;28;20024;-37
2022/01/07 03:46:36;;;;;;;13.25;7.63;;;;;;;6.72;67.85;99792.91;5091318;28;20016;-37
2022/01/07 03:49:02;;;;;;;13.20;7.05;;;;;;;6.48;68.48;99798.38;5091721;28;20030;-37
2022/01/07 03:51:27;;;;;;;12.63;6.43;;;;;;;6.47;68.69;99802.81;5091244;28;20024;-37
2022/01/07 03:53:52;;;;;;;14.50;7.03;;;;;;;6.68;68.47;99812.75;5091717;28;20035;-37
2022/01/07 03:56:20;;;;;;;13.93;7.55;;;;;;;6.59;68.53;99811.19;5091582;28;20418;-37
2022/01/07 03:58:46;;;;;;;13.27;7.55;;;;;;;6.36;69.00;99817.28;5091578;28;20020;-37
2022/01/07 04:01:11;;;;;;;16.60;7.60;;;;;;;6.33;69.12;99816.81;5091716;28;20446;-37
2022/01/07 04:03:37;;;;;;;12.13;7.18;;;;;;;6.50;68.82;99814.88;5091113;28;20412;-38
2022/01/07 04:06:02;;;;;;;14.60;8.00;;;;;;;6.39;68.62;99811.63;5091545;28;20039;-37
2022/01/07 04:08:28;;;;;;;15.70;7.30;;;;;;;6.46;68.63;99823.16;5091198;28;20495;-37
2022/01/07 04:10:53;;;;;;;12.52;7.25;;;;;;;6.52;67.95;99820.81;5091207;28;20031;-37
2022/01/07 04:13:19;;;;;;;13.40;7.22;;;;;;;6.56;68.01;99825.56;5091097;28;20027;-37
2022/01/07 04:15:44;;;;;;;13.35;6.97;;;;;;;6.56;69.35;99833.50;5091159;28;20028;-37
2022/01/07 04:18:10;;;;;;;13.48;7.07;;;;;;;6.42;68.26;99828.97;5091534;28;20024;-37
2022/01/07 04:20:36;;;;;;;11.93;7.18;;;;;;;6.22;68.76;99839.16;5091543;28;20463;-37
2022/01/07 04:23:01;;;;;;;12.32;6.80;;;;;;;6.37;68.96;99837.41;5090940;28;20016;-37
2022/01/07 04:25:27;;;;;;;14.38;7.55;;;;;;;6.38;68.21;99844.34;5090868;28;20032;-37
2022/01/07 04:28:00;;;;;;;13.00;6.82;;;;;;;6.48;68.94;99841.50;5090829;28;20027;-37
2022/01/07 04:30:29;;;;;;;14.10;7.13;;;;;;;6.33;67.98;99851.16;5090383;28;20020;-37
2022/01/07 04:32:55;;;;;;;11.10;6.55;;;;;;;6.29;68.51;99848.03;5089696;28;20035;-37
2022/01/07 04:35:20;;;;;;;21.90;11.68;;;;;;;6.49;67.35;99843.13;5089196;28;20040;-37
2022/01/07 04:37:46;;;;;;;16.95;9.88;;;;;;;6.34;68.49;99855.44;5090632;28;20465;-37
2022/01/07 04:40:12;;;;;;;18.63;9.30;;;;;;;6.13;68.35;99848.09;5089835;28;20035;-38
2022/01/07 04:42:38;;;;;;;30.10;13.73;;;;;;;6.35;67.93;99849.97;5089355;28;20016;-37
2022/01/07 04:45:05;;;;;;;12.80;7.68;;;;;;;6.37;68.11;99847.97;5089290;28;20407;-37
2022/01/07 04:47:31;;;;;;;13.65;7.53;;;;;;;6.53;67.06;99860.31;5089355;28;20063;-37
2022/01/07 04:49:57;;;;;;;13.63;7.28;;;;;;;6.41;67.24;99861.69;5089170;28;20730;-38
2022/01/07 04:52:23;;;;;;;12.48;6.45;;;;;;;6.29;67.59;99855.97;5089312;28;20062;-37
2022/01/07 04:54:48;;;;;;;12.52;7.05;;;;;;;6.47;67.78;99874.19;5089402;28;20017;-37
2022/01/07 04:57:14;;;;;;;11.43;6.60;;;;;;;6.30;67.91;99872.63;5089911;28;20012;-37
2022/01/07 04:59:39;;;;;;;11.68;6.80;;;;;;;6.19;68.11;99872.03;5089343;28;20081;-38
2022/01/07 05:02:04;;;;;;;15.00;7.45;;;;;;;6.27;67.98;99881.75;5090043;28;20020;-38
2022/01/07 05:04:30;;;;;;;13.00;6.95;;;;;;;6.22;67.81;99882.25;5092854;28;20472;-37
2022/01/07 05:06:55;;;;;;;13.40;7.30;;;;;;;6.32;67.93;99891.78;5092544;28;20655;-38
2022/01/07 05:09:21;;;;;;;14.35;7.03;;;;;;;6.25;67.75;99891.66;5090207;28;20048;-37
2022/01/07 05:11:47;;;;;;;13.80;7.10;;;;;;;7.14;70.18;99892.13;5072987;28;20058;-38
2022/01/07 05:14:13;;;;;;;11.82;6.80;;;;;;;6.55;66.82;99892.69;5072965;28;20114;-37
2022/01/07 05:16:38;;;;;;;11.85;6.75;;;;;;;6.24;68.38;99901.44;5073097;28;20432;-37
2022/01/07 05:19:04;;;;;;;12.15;7.07;;;;;;;6.67;66.32;99908.16;5073284;28;20020;-37
2022/01/07 05:21:29;;;;;;;13.85;7.32;;;;;;;6.46;66.74;99906.94;5071786;28;20404;-38
2022/01/07 05:23:55;;;;;;;13.90;7.45;;;;;;;6.48;68.57;99909.41;5072754;28;20033;-37
2022/01/07 05:26:21;;;;;;;14.38;7.65;;;;;;;6.41;67.79;99918.00;5082724;28;20077;-37
2022/01/07 05:28:46;;;;;;;13.30;7.15;;;;;;;6.43;67.63;99925.78;5080550;28;20468;-38
2022/01/07 05:31:11;;;;;;;15.05;7.38;;;;;;;6.26;68.35;99930.31;5092793;28;20144;-38
2022/01/07 05:33:37;;;;;;;13.95;7.80;;;;;;;6.15;68.45;99930.66;5092822;28;20024;-38
2022/01/07 05:36:03;;;;;;;16.05;7.43;;;;;;;6.52;67.14;99937.97;5092719;28;20028;-36
2022/01/07 05:38:28;;;;;;;13.30;7.25;;;;;;;6.73;66.38;99939.19;5092179;28;20510;-37
2022/01/07 05:40:53;;;;;;;14.30;8.20;;;;;;;6.55;67.12;99928.84;5091475;28;20017;-38
2022/01/07 05:43:19;;;;;;;13.65;7.47;;;;;;;6.46;66.95;99943.94;5090835;28;20082;-51
2022/01/07 05:45:45;;;;;;;14.80;7.75;;;;;;;6.25;68.17;99948.00;5090212;28;20027;-49
2022/01/07 05:48:14;;;;;;;20.92;7.55;;;;;;;6.07;68.54;99945.56;5090552;28;20024;-50
2022/01/07 05:50:40;;;;;;;14.18;7.60;;;;;;;6.22;68.48;99948.31;5090660;28;20016;-51
2022/01/07 05:53:05;;;;;;;16.90;8.05;;;;;;;6.16;68.65;99943.72;5090392;28;20027;-49
2022/01/07 05:55:31;;;;;;;12.38;7.78;;;;;;;6.53;66.98;99939.63;5090586;28;20039;-51
2022/01/07 05:57:56;;;;;;;15.13;7.07;;;;;;;6.49;66.91;99940.94;5091335;28;20652;-50
2022/01/07 06:00:22;;;;;;;16.17;7.55;;;;;;;6.35;67.61;99937.22;5091441;28;20020;-48
2022/01/07 06:02:47;;;;;;;34.88;17.75;;;;;;;6.20;67.92;99926.53;5091260;28;20033;-49
2022/01/07 06:05:13;;;;;;;15.20;7.88;;;;;;;5.90;68.81;99933.34;5089868;28;20035;-51
2022/01/07 06:07:38;;;;;;;14.82;7.75;;;;;;;6.11;68.53;99938.13;5091028;28;20109;-52
2022/01/07 06:10:05;;;;;;;14.27;7.22;;;;;;;6.28;68.36;99944.16;5091869;28;20072;-51
2022/01/07 06:12:30;;;;;;;12.93;7.13;;;;;;;6.82;65.62;99948.75;5091893;28;20031;-49
2022/01/07 06:14:56;;;;;;;18.40;9.50;;;;;;;6.53;66.29;99944.91;5090984;28;20020;-51
2022/01/07 06:17:21;;;;;;;27.50;12.50;;;;;;;6.32;67.18;99948.16;5091759;28;20431;-52
2022/01/07 06:19:47;;;;;;;14.30;7.97;;;;;;;6.43;67.00;99953.03;5091831;28;20020;-50
2022/01/07 06:22:12;;;;;;;15.50;7.07;;;;;;;6.20;68.01;99955.59;5091973;28;20176;-51
2022/01/07 06:24:38;;;;;;;14.55;7.00;;;;;;;6.23;67.22;99965.03;5091844;28;20024;-48
2022/01/07 06:27:03;;;;;;;15.55;7.63;;;;;;;6.43;66.68;99960.97;5091145;28;20028;-48
2022/01/07 06:29:29;;;;;;;14.75;7.53;;;;;;;7.15;64.46;99956.47;5091807;28;20024;-50
2022/01/07 06:31:54;;;;;;;17.77;8.77;;;;;;;6.82;65.29;99961.97;5091226;28;20104;-51
2022/01/07 06:34:20;;;;;;;15.55;8.23;;;;;;;6.65;65.45;99959.41;5091286;28;20027;-51
2022/01/07 06:36:49;;;;;;;16.70;9.07;;;;;;;6.53;66.07;99960.78;5091543;28;20527;-50
2022/01/07 06:39:15;;;;;;;16.83;8.63;;;;;;;6.25;66.48;99973.59;5091495;28;20032;-50
2022/01/07 06:41:40;;;;;;;20.55;8.60;;;;;;;6.46;66.01;99979.13;5091226;28;20028;-50
2022/01/07 06:44:06;;;;;;;16.50;8.40;;;;;;;6.23;66.83;99957.91;5090038;28;20028;-50
2022/01/07 06:46:31;;;;;;;18.02;8.95;;;;;;;6.85;65.05;99986.25;5090498;28;20020;-50
2022/01/07 06:48:57;;;;;;;13.52;7.90;;;;;;;7.10;63.55;99987.94;5091456;28;20024;-51
2022/01/07 06:51:22;;;;;;;15.93;8.05;;;;;;;6.80;65.22;99988.59;5091793;28;20020;-52
2022/01/07 06:53:48;;;;;;;12.77;7.07;;;;;;;6.97;64.54;99986.69;5091457;28;20373;-53
2022/01/07 06:56:13;;;;;;;12.15;6.55;;;;;;;6.71;65.30;99986.16;5091437;28;20024;-52
2022/01/07 06:58:39;;;;;;;14.40;7.35;;;;;;;6.78;65.18;99990.59;5091286;28;20027;-50
2022/01/07 07:01:06;;;;;;;13.43;7.45;;;;;;;6.95;64.39;99985.19;5091198;28;20024;-50
2022/01/07 07:03:31;;;;;;;14.82;7.72;;;;;;;7.50;63.31;99989.50;5091041;28;20032;-52
2022/01/07 07:05:57;;;;;;;18.48;8.65;;;;;;;7.75;61.78;99986.63;5091364;28;20027;-48
2022/01/07 07:08:22;;;;;;;16.35;8.25;;;;;;;7.43;63.12;99988.53;5091152;28;20048;-49
2022/01/07 07:10:48;;;;;;;13.13;7.43;;;;;;;7.15;63.76;99994.34;5090127;28;20499;-49
2022/01/07 07:13:13;;;;;;;14.95;7.18;;;;;;;7.00;63.87;99988.16;5090530;28;20032;-52
2022/01/07 07:15:39;;;;;;;16.98;7.43;;;;;;;6.95;63.93;99987.84;5090029;28;20459;-49
2022/01/07 07:18:04;;;;;;;13.80;7.07;;;;;;;7.22;63.72;99990.00;5090091;28;20020;-50
2022/01/07 07:20:29;;;;;;;16.88;7.18;;;;;;;7.52;63.06;99991.94;5090497;28;20027;-50
2022/01/07 07:22:55;;;;;;;13.48;6.68;;;;;;;7.89;61.58;99987.66;5090232;28;20035;-49
2022/01/07 07:25:23;;;;;;;12.77;6.90;;;;;;;7.91;61.95;99996.25;5089859;28;20020;-49
2022/01/07 07:27:49;;;;;;;19.83;11.38;;;;;;;8.00;61.34;99993.34;5089848;28;20020;-50
2022/01/07 07:30:14;;;;;;;17.70;7.90;;;;;;;7.57;62.77;99997.53;5089911;28;20077;-49
2022/01/07 07:32:40;;;;;;;26.33;11.90;;;;;;;7.80;62.18;99992.22;5089869;28;20024;-50
2022/01/07 07:37:40;;;;;;;15.50;7.40;;;;;;;8.11;60.59;99997.41;5089663;28;20016;-52
2022/01/07 07:40:09;;;;;;;13.45;7.50;;;;;;;7.93;61.35;99999.56;5088435;28;20046;-51
2022/01/07 07:42:34;;;;;;;12.35;6.97;;;;;;;7.69;61.88;100001.44;5089839;28;20480;-49
2022/01/07 07:45:00;;;;;;;14.60;7.65;;;;;;;7.58;61.62;99993.91;5089755;28;20028;-50
2022/01/07 07:47:25;;;;;;;12.80;6.82;;;;;;;7.34;62.56;99995.72;5089464;28;20517;-51
2022/01/07 07:49:50;;;;;;;13.95;6.85;;;;;;;7.37;62.55;99997.19;5088565;28;20073;-48
2022/01/07 07:52:16;;;;;;;12.85;7.53;;;;;;;7.10;63.21;99995.88;5089595;28;20028;-50
2022/01/07 07:54:41;;;;;;;12.32;7.55;;;;;;;7.69;61.54;99998.78;5089557;28;20028;-50
2022/01/07 07:57:07;;;;;;;12.38;7.07;;;;;;;7.60;61.22;99995.34;5089523;28;20016;-49
2022/01/07 07:59:32;;;;;;;15.75;7.07;;;;;;;7.46;62.20;100003.25;5089371;28;20024;-49
2022/01/07 08:01:58;;;;;;;13.35;7.07;;;;;;;7.69;61.85;99997.94;5089339;28;20081;-50
2022/01/07 08:04:23;;;;;;;13.82;6.60;;;;;;;7.24;63.32;100003.88;5088008;28;20036;-48
2022/01/07 08:06:49;;;;;;;12.93;7.30;;;;;;;7.60;62.53;100005.94;5088834;28;20028;-50
2022/01/07 08:09:15;;;;;;;13.18;7.22;;;;;;;8.26;61.28;100010.66;5088597;28;20079;-51
2022/01/07 08:11:52;;;;;;;16.98;7.05;;;;;;;9.30;57.42;100010.53;5088887;28;20109;-51
2022/01/07 08:17:02;;;;;;;13.43;6.90;;;;;;;8.92;58.97;100009.91;5089702;28;20034;-50
2022/01/07 08:19:28;;;;;;;15.25;7.05;;;;;;;8.65;59.17;100006.94;5088939;28;20078;-49
2022/01/07 08:21:53;;;;;;;13.02;7.65;;;;;;;8.48;59.42;100006.31;5089351;28;20024;-50
2022/01/07 08:24:19;;;;;;;13.57;7.65;;;;;;;8.62;59.55;99999.34;5089492;28;20024;-52
2022/01/07 08:26:45;;;;;;;11.73;7.10;;;;;;;8.41;59.52;99997.41;5089353;28;20039;-49
2022/01/07 08:29:12;;;;;;;13.32;7.53;;;;;;;8.87;58.75;99999.03;5088118;28;20085;-49
2022/01/07 08:36:50;;;;;;;12.80;7.72;;;;;;;8.69;59.01;99999.44;5089904;28;20441;-52
2022/01/07 08:39:15;;;;;;;15.18;7.50;;;;;;;8.86;58.80;99992.09;5074779;28;20479;-49
2022/01/07 08:41:42;;;;;;;15.23;8.27;;;;;;;8.95;58.07;99996.28;5091413;28;20085;-50
2022/01/07 08:44:08;;;;;;;14.00;7.43;;;;;;;8.96;58.27;99996.09;5092747;28;20030;-52
2022/01/07 08:46:33;;;;;;;16.40;8.05;;;;;;;8.77;59.00;99997.50;5093935;28;20051;-51
2022/01/07 08:48:59;;;;;;;14.82;7.22;;;;;;;8.51;60.08;99995.34;5093557;28;20172;-52
2022/01/07 08:51:26;;;;;;;15.43;7.97;;;;;;;8.93;59.10;99998.28;5093686;28;20089;-49
2022/01/07 08:53:51;;;;;;;15.77;7.22;;;;;;;9.09;58.76;99997.25;5093793;28;20020;-51
2022/01/07 08:56:17;;;;;;;13.88;7.60;;;;;;;8.90;59.54;100001.31;5093762;28;20107;-49
2022/01/07 08:58:43;;;;;;;12.38;7.45;;;;;;;9.11;58.46;99996.03;5093713;28;20100;-51
2022/01/07 09:01:08;;;;;;;14.52;7.70;;;;;;;9.45;57.66;99994.56;5093663;28;20024;-47
2022/01/07 09:03:34;;;;;;;14.82;7.43;;;;;;;9.59;57.00;99996.34;5093817;28;20020;-52
2022/01/07 09:05:59;;;;;;;15.23;7.45;;;;;;;9.53;57.01;99989.09;5094064;28;20430;-53
2022/01/07 09:08:25;;;;;;;13.93;6.78;;;;;;;9.66;56.43;99990.25;5093485;28;20067;-49
2022/01/07 09:10:51;;;;;;;15.10;7.30;;;;;;;9.88;55.85;99983.06;5093585;28;20109;-51
2022/01/07 09:13:16;;;;;;;12.75;7.28;;;;;;;9.86;55.42;99980.63;5093523;28;20479;-49
2022/01/07 09:15:42;;;;;;;22.83;11.25;;;;;;;10.13;55.43;99973.63;5093350;28;20020;-50
2022/01/07 09:18:11;;;;;;;20.23;10.82;;;;;;;10.18;55.77;99978.34;5093385;28;20020;-51
2022/01/07 09:20:38;;;;;;;13.88;7.50;;;;;;;10.33;54.51;99980.94;5093184;28;20101;-50
2022/01/07 09:23:04;;;;;;;17.80;8.77;;;;;;;10.32;54.25;99985.44;5093207;28;20116;-48
2022/01/07 09:25:30;;;;;;;16.13;8.60;;;;;;;10.43;54.43;99972.59;5092470;28;20016;-48
2022/01/07 09:27:55;;;;;;;12.23;6.57;;;;;;;10.87;53.41;99971.34;5093051;28;20183;-47
2022/01/07 09:30:21;;;;;;;11.02;6.35;;;;;;;10.47;53.87;99966.69;5092878;28;20028;-51
2022/01/07 09:32:46;;;;;;;12.95;6.88;;;;;;;10.36;54.40;99976.06;5092744;28;20020;-51
2022/01/07 09:35:11;;;;;;;14.38;6.50;;;;;;;10.92;56.50;99964.41;5091989;28;20400;-51
2022/01/07 09:37:37;;;;;;;12.52;6.15;;;;;;;11.89;63.85;99969.44;5092004;28;20140;-48
2022/01/07 09:40:03;;;;;;;14.00;5.97;;;;;;;12.52;50.15;99964.41;5091838;28;20109;-52
2022/01/07 09:42:29;;;;;;;12.15;5.95;;;;;;;11.85;51.08;99942.38;5091749;28;20020;-48
2022/01/07 09:44:55;;;;;;;7.90;5.68;;;;;;;11.04;50.79;99961.16;5091245;28;20024;-49
2022/01/07 09:47:21;;;;;;;9.70;5.75;;;;;;;10.64;51.74;99963.69;5090592;28;20416;-49
2022/01/07 09:49:46;;;;;;;8.23;5.60;;;;;;;10.61;52.45;99964.91;5091923;28;20039;-48
2022/01/07 09:52:12;;;;;;;12.75;5.93;;;;;;;10.65;52.78;99968.81;5092761;28;20058;-48
2022/01/07 09:54:38;;;;;;;9.15;5.70;;;;;;;10.36;53.41;99965.41;5092306;28;20050;-51
2022/01/07 09:57:05;;;;;;;10.05;6.05;;;;;;;10.46;52.18;99965.03;5091822;28;20099;-50
2022/01/07 09:59:31;;;;;;;9.88;6.40;;;;;;;10.54;51.81;99967.53;5093003;28;20520;-48
2022/01/07 10:01:57;;;;;;;12.18;6.03;;;;;;;10.47;52.12;99966.69;5092761;28;20027;-48
2022/01/07 10:04:33;;;;;;;12.15;5.95;;;;;;;10.45;52.69;99966.09;5092300;28;20433;-49
2022/01/07 10:07:21;;;;;;;12.00;5.78;;;;;;;10.44;53.35;99958.28;5091916;28;20539;-49
2022/01/07 10:10:00;;;;;;;9.18;5.95;;;;;;;10.33;52.56;99967.63;5091707;28;20139;-48
2022/01/07 10:12:26;;;;;;;18.00;7.00;;;;;;;10.43;52.55;99961.97;5092120;28;20034;-50
2022/01/07 10:15:14;;;;;;;11.40;6.93;;;;;;;10.64;52.42;99959.22;5090763;28;20111;-50
2022/01/07 10:17:40;;;;;;;11.75;6.90;;;;;;;10.42;52.63;99925.75;5091831;28;20020;-50
2022/01/07 10:20:05;;;;;;;11.25;6.60;;;;;;;10.67;52.83;99958.78;5073982;28;20062;-49
2022/01/07 10:22:47;;;;;;;13.27;6.97;;;;;;;10.65;53.44;99954.69;5092124;28;20107;-51
2022/01/07 10:25:18;;;;;;;12.02;6.15;;;;;;;10.48;52.96;99960.34;5091863;28;20403;-49
2022/01/07 10:27:43;;;;;;;10.63;6.40;;;;;;;10.67;53.00;99952.66;5090541;28;20028;-52
2022/01/07 10:30:17;;;;;;;13.65;7.95;;;;;;;10.95;52.01;99947.22;5091318;28;20031;-49
2022/01/07 10:32:43;;;;;;;9.55;6.25;;;;;;;10.62;52.47;99941.78;5091869;28;20032;-51
2022/01/07 10:35:10;;;;;;;8.82;5.72;;;;;;;10.50;53.62;99946.84;5091829;28;20107;-50
2022/01/07 10:37:37;;;;;;;10.00;6.18;;;;;;;10.45;53.71;99936.81;5091322;28;20499;-48
2022/01/07 10:40:38;;;;;;;8.77;6.07;;;;;;;10.46;53.76;99933.13;5091169;28;20031;-48
2022/01/07 10:43:30;;;;;;;12.65;6.03;;;;;;;10.52;53.11;99940.31;5091741;28;20046;-51
2022/01/07 10:46:01;;;;;;;13.07;6.40;;;;;;;10.65;52.93;99939.53;5091436;28;20480;-47
2022/01/07 10:48:49;;;;;;;9.65;6.00;;;;;;;10.67;53.29;99942.00;5091501;28;20051;-48
2022/01/07 10:51:18;;;;;;;19.13;10.50;;;;;;;10.62;53.11;99939.94;5091185;28;20031;-49
2022/01/07 10:53:51;;;;;;;12.73;6.45;;;;;;;10.49;54.22;99932.75;5091070;28;20024;-52
2022/01/07 10:56:18;;;;;;;11.40;6.10;;;;;;;10.56;53.91;99933.56;5091079;28;20542;-51
2022/01/07 10:58:47;;;;;;;10.27;5.82;;;;;;;10.59;53.53;99942.19;5091184;28;20103;-49
2022/01/07 11:01:21;;;;;;;9.63;5.53;;;;;;;10.51;53.66;99940.53;5090861;28;20027;-50
2022/01/07 11:03:47;;;;;;;10.90;5.93;;;;;;;10.62;53.04;99939.13;5091427;28;20028;-49
2022/01/07 11:06:12;;;;;;;10.48;5.95;;;;;;;10.54;53.67;99935.59;5090931;28;20089;-49
2022/01/07 11:08:39;;;;;;;11.77;6.00;;;;;;;10.52;54.08;99936.81;5090817;28;20051;-52
2022/01/07 11:11:04;;;;;;;10.77;6.50;;;;;;;10.56;53.59;99932.75;5072848;28;20544;-51
2022/01/07 11:13:30;;;;;;;10.73;6.47;;;;;;;10.46;54.26;99933.13;5089437;28;20024;-48
2022/01/07 11:15:55;;;;;;;9.80;5.95;;;;;;;10.53;54.04;99928.66;5089047;28;20506;-48
2022/01/07 11:18:21;;;;;;;8.30;6.18;;;;;;;10.39;54.41;99928.78;5072484;28;20024;-50
2022/01/07 11:20:46;;;;;;;10.60;5.68;;;;;;;10.42;54.88;99926.56;5090662;28;20092;-48
2022/01/07 11:23:12;;;;;;;10.30;6.18;;;;;;;10.45;54.62;99925.34;5089168;28;20039;-50
2022/01/07 11:25:37;;;;;;;10.90;5.88;;;;;;;10.51;53.81;99927.22;5090787;28;20468;-50
2022/01/07 11:28:03;;;;;;;9.27;6.10;;;;;;;10.68;54.30;99927.66;5090410;28;20404;-49
2022/01/07 11:30:32;;;;;;;11.95;6.70;;;;;;;10.66;53.82;99927.88;5090696;28;20077;-51
2022/01/07 11:32:58;;;;;;;16.50;9.35;;;;;;;10.63;54.58;99935.44;5090544;28;20024;-50
2022/01/07 11:35:23;;;;;;;11.00;6.65;;;;;;;10.59;53.84;99927.03;5090810;28;20016;-48
2022/01/07 11:37:52;;;;;;;10.45;6.40;;;;;;;10.57;53.76;99929.09;5090815;28;20498;-48